sensor_id;sensor_type;location;lat;lon;timestamp;P1;durP1;ratioP1;P2;durP2;ratioP2
8803;SDS011;4438;50.890;4.726;2022-07-29T00:02:06;3.30;;;2.10;;
8803;SDS011;4438;50.890;4.726;2022-07-29T00:04:33;2.97;;;2.03;;
8803;SDS011;4438;50.890;4.726;2022-07-29T00:07:00;3.27;;;1.90;;
8803;SDS011;4438;50.890;4.726;2022-07-29T00:09:26;3.50;;;2.40;;
8803;SDS011;4438;50.890;4.726;2022-07-29T00:11:52;2.20;;;2.00;;
8803;SDS011;4438;50.890;4.726;2022-07-29T00:14:19;2.77;;;2.00;;
8803;SDS011;4438;50.890;4.726;2022-07-29T00:16:45;4.83;;;2.20;;
8803;SDS011;4438;50.890;4.726;2022-07-29T00:19:11;2.47;;;2.00;;
8803;SDS011;4438;50.890;4.726;2022-07-29T00:21:37;3.33;;;2.07;;
8803;SDS011;4438;50.890;4.726;2022-07-29T00:24:03;4.03;;;2.20;;
8803;SDS011;4438;50.890;4.726;2022-07-29T00:26:29;3.53;;;2.20;;
8803;SDS011;4438;50.890;4.726;2022-07-29T00:29:01;4.23;;;2.40;;
8803;SDS011;4438;50.890;4.726;2022-07-29T00:31:27;3.50;;;2.30;;
8803;SDS011;4438;50.890;4.726;2022-07-29T00:33:53;3.50;;;2.20;;
8803;SDS011;4438;50.890;4.726;2022-07-29T00:36:20;2.77;;;1.93;;
8803;SDS011;4438;50.890;4.726;2022-07-29T00:38:50;2.20;;;1.97;;
8803;SDS011;4438;50.890;4.726;2022-07-29T00:41:17;3.40;;;2.10;;
8803;SDS011;4438;50.890;4.726;2022-07-29T00:43:43;3.37;;;2.27;;
8803;SDS011;4438;50.890;4.726;2022-07-29T00:46:10;3.20;;;2.37;;
8803;SDS011;4438;50.890;4.726;2022-07-29T00:48:36;2.57;;;2.30;;
8803;SDS011;4438;50.890;4.726;2022-07-29T00:51:02;3.00;;;1.90;;
8803;SDS011;4438;50.890;4.726;2022-07-29T00:53:29;2.20;;;2.00;;
8803;SDS011;4438;50.890;4.726;2022-07-29T00:55:55;2.87;;;2.47;;
8803;SDS011;4438;50.890;4.726;2022-07-29T00:58:22;3.00;;;2.20;;
8803;SDS011;4438;50.890;4.726;2022-07-29T01:00:48;2.87;;;2.07;;
8803;SDS011;4438;50.890;4.726;2022-07-29T01:03:14;2.33;;;2.10;;
8803;SDS011;4438;50.890;4.726;2022-07-29T01:05:41;2.47;;;2.10;;
8803;SDS011;4438;50.890;4.726;2022-07-29T01:08:08;3.00;;;2.10;;
8803;SDS011;4438;50.890;4.726;2022-07-29T01:10:36;4.03;;;2.33;;
8803;SDS011;4438;50.890;4.726;2022-07-29T01:13:03;3.40;;;2.10;;
8803;SDS011;4438;50.890;4.726;2022-07-29T01:15:30;3.00;;;2.03;;
8803;SDS011;4438;50.890;4.726;2022-07-29T01:18:11;3.87;;;2.27;;
8803;SDS011;4438;50.890;4.726;2022-07-29T01:25:58;2.40;;;2.20;;
8803;SDS011;4438;50.890;4.726;2022-07-29T01:31:02;3.43;;;2.30;;
8803;SDS011;4438;50.890;4.726;2022-07-29T01:33:28;2.40;;;2.00;;
8803;SDS011;4438;50.890;4.726;2022-07-29T01:36:16;4.33;;;2.40;;
8803;SDS011;4438;50.890;4.726;2022-07-29T01:38:44;2.50;;;2.30;;
8803;SDS011;4438;50.890;4.726;2022-07-29T01:41:15;2.50;;;2.17;;
8803;SDS011;4438;50.890;4.726;2022-07-29T01:43:56;3.00;;;2.30;;
8803;SDS011;4438;50.890;4.726;2022-07-29T01:46:33;3.80;;;2.50;;
8803;SDS011;4438;50.890;4.726;2022-07-29T01:49:47;3.03;;;2.30;;
8803;SDS011;4438;50.890;4.726;2022-07-29T01:51:51;4.67;;;2.20;;
8803;SDS011;4438;50.890;4.726;2022-07-29T01:54:26;3.27;;;2.47;;
8803;SDS011;4438;50.890;4.726;2022-07-29T01:56:55;2.80;;;2.47;;
8803;SDS011;4438;50.890;4.726;2022-07-29T01:59:22;3.33;;;2.60;;
8803;SDS011;4438;50.890;4.726;2022-07-29T02:01:49;2.40;;;2.20;;
8803;SDS011;4438;50.890;4.726;2022-07-29T02:04:16;2.63;;;2.40;;
8803;SDS011;4438;50.890;4.726;2022-07-29T02:06:44;2.90;;;2.40;;
8803;SDS011;4438;50.890;4.726;2022-07-29T02:09:12;2.60;;;2.30;;
8803;SDS011;4438;50.890;4.726;2022-07-29T02:11:40;3.40;;;2.57;;
8803;SDS011;4438;50.890;4.726;2022-07-29T02:14:09;3.83;;;2.77;;
8803;SDS011;4438;50.890;4.726;2022-07-29T02:16:36;2.60;;;2.40;;
8803;SDS011;4438;50.890;4.726;2022-07-29T02:19:04;3.03;;;2.47;;
8803;SDS011;4438;50.890;4.726;2022-07-29T02:21:31;2.57;;;2.37;;
8803;SDS011;4438;50.890;4.726;2022-07-29T02:23:59;2.90;;;2.60;;
8803;SDS011;4438;50.890;4.726;2022-07-29T02:26:25;3.50;;;2.80;;
8803;SDS011;4438;50.890;4.726;2022-07-29T02:28:54;3.30;;;2.50;;
8803;SDS011;4438;50.890;4.726;2022-07-29T02:31:23;3.00;;;2.67;;
8803;SDS011;4438;50.890;4.726;2022-07-29T02:33:51;3.30;;;2.80;;
8803;SDS011;4438;50.890;4.726;2022-07-29T02:36:18;4.40;;;2.77;;
8803;SDS011;4438;50.890;4.726;2022-07-29T02:38:46;3.20;;;2.60;;
8803;SDS011;4438;50.890;4.726;2022-07-29T02:41:20;3.80;;;2.80;;
8803;SDS011;4438;50.890;4.726;2022-07-29T02:43:48;4.03;;;2.43;;
8803;SDS011;4438;50.890;4.726;2022-07-29T02:46:26;3.10;;;2.80;;
8803;SDS011;4438;50.890;4.726;2022-07-29T02:51:55;3.33;;;2.87;;
8803;SDS011;4438;50.890;4.726;2022-07-29T02:54:26;3.93;;;3.17;;
8803;SDS011;4438;50.890;4.726;2022-07-29T02:56:57;4.67;;;2.83;;
8803;SDS011;4438;50.890;4.726;2022-07-29T02:59:25;4.03;;;3.00;;
8803;SDS011;4438;50.890;4.726;2022-07-29T03:01:52;4.00;;;2.80;;
8803;SDS011;4438;50.890;4.726;2022-07-29T03:04:19;2.93;;;2.63;;
8803;SDS011;4438;50.890;4.726;2022-07-29T03:06:47;3.50;;;2.87;;
8803;SDS011;4438;50.890;4.726;2022-07-29T03:09:14;2.70;;;2.50;;
8803;SDS011;4438;50.890;4.726;2022-07-29T03:11:41;3.03;;;2.73;;
8803;SDS011;4438;50.890;4.726;2022-07-29T03:14:07;2.70;;;2.50;;
8803;SDS011;4438;50.890;4.726;2022-07-29T03:16:34;3.00;;;2.70;;
8803;SDS011;4438;50.890;4.726;2022-07-29T03:19:01;9.47;;;2.90;;
8803;SDS011;4438;50.890;4.726;2022-07-29T03:21:28;5.53;;;2.83;;
8803;SDS011;4438;50.890;4.726;2022-07-29T03:23:54;4.50;;;2.73;;
8803;SDS011;4438;50.890;4.726;2022-07-29T03:26:21;3.00;;;2.70;;
8803;SDS011;4438;50.890;4.726;2022-07-29T03:28:47;4.27;;;2.97;;
8803;SDS011;4438;50.890;4.726;2022-07-29T03:31:13;3.13;;;2.70;;
8803;SDS011;4438;50.890;4.726;2022-07-29T03:33:39;3.80;;;2.90;;
8803;SDS011;4438;50.890;4.726;2022-07-29T03:36:05;3.63;;;3.20;;
8803;SDS011;4438;50.890;4.726;2022-07-29T03:38:32;3.27;;;2.73;;
8803;SDS011;4438;50.890;4.726;2022-07-29T03:41:01;3.80;;;2.80;;
8803;SDS011;4438;50.890;4.726;2022-07-29T03:43:30;3.10;;;2.80;;
8803;SDS011;4438;50.890;4.726;2022-07-29T03:45:58;4.03;;;2.67;;
8803;SDS011;4438;50.890;4.726;2022-07-29T03:48:25;4.17;;;2.70;;
8803;SDS011;4438;50.890;4.726;2022-07-29T03:50:52;3.43;;;2.73;;
8803;SDS011;4438;50.890;4.726;2022-07-29T03:53:18;3.70;;;2.83;;
8803;SDS011;4438;50.890;4.726;2022-07-29T03:55:45;4.00;;;3.10;;
8803;SDS011;4438;50.890;4.726;2022-07-29T03:58:13;2.70;;;2.50;;
8803;SDS011;4438;50.890;4.726;2022-07-29T04:00:39;2.87;;;2.50;;
8803;SDS011;4438;50.890;4.726;2022-07-29T04:03:05;4.17;;;3.00;;
8803;SDS011;4438;50.890;4.726;2022-07-29T04:05:32;2.63;;;2.43;;
8803;SDS011;4438;50.890;4.726;2022-07-29T04:07:58;3.07;;;2.77;;
8803;SDS011;4438;50.890;4.726;2022-07-29T04:10:24;4.33;;;2.83;;
8803;SDS011;4438;50.890;4.726;2022-07-29T04:12:50;4.00;;;2.80;;
8803;SDS011;4438;50.890;4.726;2022-07-29T04:15:17;3.30;;;2.63;;
8803;SDS011;4438;50.890;4.726;2022-07-29T04:17:43;3.77;;;2.53;;
8803;SDS011;4438;50.890;4.726;2022-07-29T04:20:10;3.73;;;3.00;;
8803;SDS011;4438;50.890;4.726;2022-07-29T04:22:38;2.77;;;2.57;;
8803;SDS011;4438;50.890;4.726;2022-07-29T04:25:04;3.20;;;2.90;;
8803;SDS011;4438;50.890;4.726;2022-07-29T04:27:31;3.00;;;2.70;;
8803;SDS011;4438;50.890;4.726;2022-07-29T04:29:57;3.57;;;3.17;;
8803;SDS011;4438;50.890;4.726;2022-07-29T04:32:23;3.87;;;2.97;;
8803;SDS011;4438;50.890;4.726;2022-07-29T04:34:49;4.53;;;2.70;;
8803;SDS011;4438;50.890;4.726;2022-07-29T04:37:15;3.83;;;2.77;;
8803;SDS011;4438;50.890;4.726;2022-07-29T04:39:42;3.47;;;2.87;;
8803;SDS011;4438;50.890;4.726;2022-07-29T04:42:08;3.77;;;2.83;;
8803;SDS011;4438;50.890;4.726;2022-07-29T04:44:34;4.90;;;3.20;;
8803;SDS011;4438;50.890;4.726;2022-07-29T04:47:00;3.10;;;2.90;;
8803;SDS011;4438;50.890;4.726;2022-07-29T04:49:26;3.27;;;2.73;;
8803;SDS011;4438;50.890;4.726;2022-07-29T04:51:52;6.37;;;3.30;;
8803;SDS011;4438;50.890;4.726;2022-07-29T04:54:18;3.23;;;2.90;;
8803;SDS011;4438;50.890;4.726;2022-07-29T04:56:44;4.23;;;2.73;;
8803;SDS011;4438;50.890;4.726;2022-07-29T04:59:11;3.23;;;2.93;;
8803;SDS011;4438;50.890;4.726;2022-07-29T05:01:37;3.20;;;2.90;;
8803;SDS011;4438;50.890;4.726;2022-07-29T05:04:03;5.60;;;3.10;;
8803;SDS011;4438;50.890;4.726;2022-07-29T05:06:29;3.37;;;2.63;;
8803;SDS011;4438;50.890;4.726;2022-07-29T05:08:55;3.50;;;2.63;;
8803;SDS011;4438;50.890;4.726;2022-07-29T05:11:22;3.23;;;2.93;;
8803;SDS011;4438;50.890;4.726;2022-07-29T05:13:48;3.27;;;2.63;;
8803;SDS011;4438;50.890;4.726;2022-07-29T05:16:14;5.13;;;2.83;;
8803;SDS011;4438;50.890;4.726;2022-07-29T05:18:40;4.70;;;2.93;;
8803;SDS011;4438;50.890;4.726;2022-07-29T05:21:07;4.37;;;3.53;;
8803;SDS011;4438;50.890;4.726;2022-07-29T05:23:33;6.00;;;3.53;;
8803;SDS011;4438;50.890;4.726;2022-07-29T05:25:59;4.63;;;3.47;;
8803;SDS011;4438;50.890;4.726;2022-07-29T05:28:25;4.60;;;3.27;;
8803;SDS011;4438;50.890;4.726;2022-07-29T05:30:51;6.10;;;2.97;;
8803;SDS011;4438;50.890;4.726;2022-07-29T05:33:17;3.90;;;3.50;;
8803;SDS011;4438;50.890;4.726;2022-07-29T05:35:43;4.20;;;3.60;;
8803;SDS011;4438;50.890;4.726;2022-07-29T05:38:09;4.33;;;3.70;;
8803;SDS011;4438;50.890;4.726;2022-07-29T05:40:35;4.20;;;3.63;;
8803;SDS011;4438;50.890;4.726;2022-07-29T05:43:01;7.30;;;4.30;;
8803;SDS011;4438;50.890;4.726;2022-07-29T05:45:28;5.83;;;3.80;;
8803;SDS011;4438;50.890;4.726;2022-07-29T05:47:54;4.80;;;3.70;;
8803;SDS011;4438;50.890;4.726;2022-07-29T05:50:20;4.37;;;3.90;;
8803;SDS011;4438;50.890;4.726;2022-07-29T05:52:46;4.97;;;3.67;;
8803;SDS011;4438;50.890;4.726;2022-07-29T05:55:12;5.13;;;3.77;;
8803;SDS011;4438;50.890;4.726;2022-07-29T05:57:38;4.47;;;3.47;;
8803;SDS011;4438;50.890;4.726;2022-07-29T06:00:04;4.80;;;4.27;;
8803;SDS011;4438;50.890;4.726;2022-07-29T06:02:31;7.33;;;4.10;;
8803;SDS011;4438;50.890;4.726;2022-07-29T06:04:57;5.13;;;4.50;;
8803;SDS011;4438;50.890;4.726;2022-07-29T06:07:32;3.60;;;3.30;;
8803;SDS011;4438;50.890;4.726;2022-07-29T06:09:59;5.57;;;4.23;;
8803;SDS011;4438;50.890;4.726;2022-07-29T06:12:25;5.03;;;3.83;;
8803;SDS011;4438;50.890;4.726;2022-07-29T06:14:51;6.53;;;4.00;;
8803;SDS011;4438;50.890;4.726;2022-07-29T06:17:17;5.67;;;4.83;;
8803;SDS011;4438;50.890;4.726;2022-07-29T06:19:43;5.70;;;4.03;;
8803;SDS011;4438;50.890;4.726;2022-07-29T06:22:09;5.37;;;3.83;;
8803;SDS011;4438;50.890;4.726;2022-07-29T06:24:36;5.47;;;4.50;;
8803;SDS011;4438;50.890;4.726;2022-07-29T06:27:04;5.63;;;3.73;;
8803;SDS011;4438;50.890;4.726;2022-07-29T06:29:30;5.13;;;4.63;;
8803;SDS011;4438;50.890;4.726;2022-07-29T06:31:57;4.03;;;3.60;;
8803;SDS011;4438;50.890;4.726;2022-07-29T06:34:23;4.33;;;3.93;;
8803;SDS011;4438;50.890;4.726;2022-07-29T06:36:50;4.80;;;4.30;;
8803;SDS011;4438;50.890;4.726;2022-07-29T06:39:17;4.70;;;4.30;;
8803;SDS011;4438;50.890;4.726;2022-07-29T06:41:46;4.63;;;4.23;;
8803;SDS011;4438;50.890;4.726;2022-07-29T06:44:13;5.30;;;3.90;;
8803;SDS011;4438;50.890;4.726;2022-07-29T06:46:39;4.53;;;3.90;;
8803;SDS011;4438;50.890;4.726;2022-07-29T06:49:05;5.33;;;4.60;;
8803;SDS011;4438;50.890;4.726;2022-07-29T06:51:31;5.37;;;4.50;;
8803;SDS011;4438;50.890;4.726;2022-07-29T06:53:57;6.00;;;4.70;;
8803;SDS011;4438;50.890;4.726;2022-07-29T06:56:24;4.90;;;4.40;;
8803;SDS011;4438;50.890;4.726;2022-07-29T06:58:50;10.90;;;5.03;;
8803;SDS011;4438;50.890;4.726;2022-07-29T07:01:16;6.40;;;4.83;;
8803;SDS011;4438;50.890;4.726;2022-07-29T07:03:42;5.33;;;4.13;;
8803;SDS011;4438;50.890;4.726;2022-07-29T07:06:08;7.10;;;4.40;;
8803;SDS011;4438;50.890;4.726;2022-07-29T07:08:34;5.00;;;4.50;;
8803;SDS011;4438;50.890;4.726;2022-07-29T07:11:00;5.20;;;4.73;;
8803;SDS011;4438;50.890;4.726;2022-07-29T07:13:26;4.93;;;4.43;;
8803;SDS011;4438;50.890;4.726;2022-07-29T07:15:56;5.00;;;4.53;;
8803;SDS011;4438;50.890;4.726;2022-07-29T07:18:22;6.13;;;4.50;;
8803;SDS011;4438;50.890;4.726;2022-07-29T07:20:48;4.70;;;4.17;;
8803;SDS011;4438;50.890;4.726;2022-07-29T07:23:14;5.07;;;4.60;;
8803;SDS011;4438;50.890;4.726;2022-07-29T07:25:40;5.60;;;5.00;;
8803;SDS011;4438;50.890;4.726;2022-07-29T07:28:07;6.30;;;4.80;;
8803;SDS011;4438;50.890;4.726;2022-07-29T07:30:33;4.90;;;4.47;;
8803;SDS011;4438;50.890;4.726;2022-07-29T07:32:59;5.27;;;4.53;;
8803;SDS011;4438;50.890;4.726;2022-07-29T07:35:26;5.53;;;4.97;;
8803;SDS011;4438;50.890;4.726;2022-07-29T07:37:53;7.67;;;5.33;;
8803;SDS011;4438;50.890;4.726;2022-07-29T07:40:19;6.20;;;4.93;;
8803;SDS011;4438;50.890;4.726;2022-07-29T07:42:45;5.17;;;4.60;;
8803;SDS011;4438;50.890;4.726;2022-07-29T07:45:11;5.63;;;5.07;;
8803;SDS011;4438;50.890;4.726;2022-07-29T07:47:38;5.27;;;4.77;;
8803;SDS011;4438;50.890;4.726;2022-07-29T07:50:05;6.40;;;5.13;;
8803;SDS011;4438;50.890;4.726;2022-07-29T07:52:32;5.47;;;4.97;;
8803;SDS011;4438;50.890;4.726;2022-07-29T07:54:58;5.60;;;4.73;;
8803;SDS011;4438;50.890;4.726;2022-07-29T07:57:24;5.23;;;4.10;;
8803;SDS011;4438;50.890;4.726;2022-07-29T07:59:50;4.73;;;4.33;;
8803;SDS011;4438;50.890;4.726;2022-07-29T08:02:16;5.03;;;4.47;;
8803;SDS011;4438;50.890;4.726;2022-07-29T08:04:42;5.37;;;4.50;;
8803;SDS011;4438;50.890;4.726;2022-07-29T08:07:08;4.83;;;4.33;;
8803;SDS011;4438;50.890;4.726;2022-07-29T08:09:35;8.87;;;5.27;;
8803;SDS011;4438;50.890;4.726;2022-07-29T08:12:01;5.33;;;4.83;;
8803;SDS011;4438;50.890;4.726;2022-07-29T08:14:29;5.50;;;4.27;;
8803;SDS011;4438;50.890;4.726;2022-07-29T08:16:55;5.60;;;5.10;;
8803;SDS011;4438;50.890;4.726;2022-07-29T08:19:21;5.67;;;4.37;;
8803;SDS011;4438;50.890;4.726;2022-07-29T08:21:47;4.90;;;4.33;;
8803;SDS011;4438;50.890;4.726;2022-07-29T08:24:14;5.17;;;4.67;;
8803;SDS011;4438;50.890;4.726;2022-07-29T08:26:58;5.93;;;4.67;;
8803;SDS011;4438;50.890;4.726;2022-07-29T08:29:24;6.30;;;4.50;;
8803;SDS011;4438;50.890;4.726;2022-07-29T08:31:50;6.50;;;5.33;;
8803;SDS011;4438;50.890;4.726;2022-07-29T08:34:16;5.60;;;4.90;;
8803;SDS011;4438;50.890;4.726;2022-07-29T08:36:42;5.13;;;4.63;;
8803;SDS011;4438;50.890;4.726;2022-07-29T08:39:09;5.60;;;4.57;;
8803;SDS011;4438;50.890;4.726;2022-07-29T08:41:35;5.67;;;4.20;;
8803;SDS011;4438;50.890;4.726;2022-07-29T08:44:01;5.87;;;4.60;;
8803;SDS011;4438;50.890;4.726;2022-07-29T08:46:27;5.17;;;4.67;;
8803;SDS011;4438;50.890;4.726;2022-07-29T08:48:53;6.57;;;4.27;;
8803;SDS011;4438;50.890;4.726;2022-07-29T08:51:20;6.80;;;4.63;;
8803;SDS011;4438;50.890;4.726;2022-07-29T08:53:47;4.40;;;4.00;;
8803;SDS011;4438;50.890;4.726;2022-07-29T08:56:14;7.50;;;4.60;;
8803;SDS011;4438;50.890;4.726;2022-07-29T08:58:47;6.57;;;4.70;;
8803;SDS011;4438;50.890;4.726;2022-07-29T09:01:16;4.37;;;3.97;;
8803;SDS011;4438;50.890;4.726;2022-07-29T09:03:43;4.30;;;3.90;;
8803;SDS011;4438;50.890;4.726;2022-07-29T09:06:12;7.10;;;4.03;;
8803;SDS011;4438;50.890;4.726;2022-07-29T09:08:39;4.63;;;4.10;;
8803;SDS011;4438;50.890;4.726;2022-07-29T09:11:06;6.37;;;3.97;;
8803;SDS011;4438;50.890;4.726;2022-07-29T09:13:32;4.43;;;4.03;;
8803;SDS011;4438;50.890;4.726;2022-07-29T09:15:59;6.17;;;3.90;;
8803;SDS011;4438;50.890;4.726;2022-07-29T09:21:01;6.43;;;3.90;;
8803;SDS011;4438;50.890;4.726;2022-07-29T09:26:33;4.00;;;3.60;;
8803;SDS011;4438;50.890;4.726;2022-07-29T09:28:59;4.27;;;3.20;;
8803;SDS011;4438;50.890;4.726;2022-07-29T09:31:33;4.17;;;3.10;;
8803;SDS011;4438;50.890;4.726;2022-07-29T09:33:59;4.77;;;3.30;;
8803;SDS011;4438;50.890;4.726;2022-07-29T09:36:26;4.43;;;3.27;;
8803;SDS011;4438;50.890;4.726;2022-07-29T09:38:59;6.03;;;3.40;;
8803;SDS011;4438;50.890;4.726;2022-07-29T09:41:26;6.03;;;3.30;;
8803;SDS011;4438;50.890;4.726;2022-07-29T09:43:53;2.93;;;2.63;;
8803;SDS011;4438;50.890;4.726;2022-07-29T09:46:19;5.07;;;2.90;;
8803;SDS011;4438;50.890;4.726;2022-07-29T09:48:45;5.33;;;2.97;;
8803;SDS011;4438;50.890;4.726;2022-07-29T09:51:31;5.10;;;2.77;;
8803;SDS011;4438;50.890;4.726;2022-07-29T09:53:57;2.93;;;2.67;;
8803;SDS011;4438;50.890;4.726;2022-07-29T09:56:43;2.87;;;2.63;;
8803;SDS011;4438;50.890;4.726;2022-07-29T09:59:09;3.03;;;2.60;;
8803;SDS011;4438;50.890;4.726;2022-07-29T10:01:37;3.50;;;2.40;;
8803;SDS011;4438;50.890;4.726;2022-07-29T10:04:03;5.03;;;2.70;;
8803;SDS011;4438;50.890;4.726;2022-07-29T10:06:29;2.87;;;2.60;;
8803;SDS011;4438;50.890;4.726;2022-07-29T10:09:06;2.73;;;2.53;;
8803;SDS011;4438;50.890;4.726;2022-07-29T10:11:33;3.90;;;2.63;;
8803;SDS011;4438;50.890;4.726;2022-07-29T10:13:59;2.67;;;2.47;;
8803;SDS011;4438;50.890;4.726;2022-07-29T10:16:27;3.10;;;2.57;;
8803;SDS011;4438;50.890;4.726;2022-07-29T10:18:58;2.53;;;2.30;;
8803;SDS011;4438;50.890;4.726;2022-07-29T10:21:25;3.47;;;2.50;;
8803;SDS011;4438;50.890;4.726;2022-07-29T10:23:52;4.43;;;2.57;;
8803;SDS011;4438;50.890;4.726;2022-07-29T10:26:19;2.87;;;2.30;;
8803;SDS011;4438;50.890;4.726;2022-07-29T10:28:45;2.80;;;2.27;;
8803;SDS011;4438;50.890;4.726;2022-07-29T10:34:03;3.37;;;2.50;;
8803;SDS011;4438;50.890;4.726;2022-07-29T10:39:11;2.60;;;2.40;;
8803;SDS011;4438;50.890;4.726;2022-07-29T10:41:47;3.07;;;2.37;;
8803;SDS011;4438;50.890;4.726;2022-07-29T10:44:17;4.50;;;2.43;;
8803;SDS011;4438;50.890;4.726;2022-07-29T10:46:44;2.53;;;2.33;;
8803;SDS011;4438;50.890;4.726;2022-07-29T10:49:23;3.23;;;2.70;;
8803;SDS011;4438;50.890;4.726;2022-07-29T10:59:39;2.83;;;2.60;;
8803;SDS011;4438;50.890;4.726;2022-07-29T11:02:50;2.73;;;2.53;;
8803;SDS011;4438;50.890;4.726;2022-07-29T11:07:17;3.90;;;2.40;;
8803;SDS011;4438;50.890;4.726;2022-07-29T11:09:43;2.97;;;2.67;;
8803;SDS011;4438;50.890;4.726;2022-07-29T11:14:56;2.60;;;2.40;;
8803;SDS011;4438;50.890;4.726;2022-07-29T11:17:24;3.63;;;2.60;;
8803;SDS011;4438;50.890;4.726;2022-07-29T11:19:50;3.27;;;2.40;;
8803;SDS011;4438;50.890;4.726;2022-07-29T11:22:35;2.80;;;2.60;;
8803;SDS011;4438;50.890;4.726;2022-07-29T11:25:17;2.60;;;2.37;;
8803;SDS011;4438;50.890;4.726;2022-07-29T11:27:44;2.73;;;2.40;;
8803;SDS011;4438;50.890;4.726;2022-07-29T11:30:10;2.70;;;2.50;;
8803;SDS011;4438;50.890;4.726;2022-07-29T11:32:37;4.17;;;2.73;;
8803;SDS011;4438;50.890;4.726;2022-07-29T11:35:23;3.33;;;2.73;;
8803;SDS011;4438;50.890;4.726;2022-07-29T11:41:14;6.70;;;2.93;;
8803;SDS011;4438;50.890;4.726;2022-07-29T11:43:46;3.43;;;2.43;;
8803;SDS011;4438;50.890;4.726;2022-07-29T11:46:13;3.47;;;2.40;;
8803;SDS011;4438;50.890;4.726;2022-07-29T11:48:43;2.87;;;2.50;;
8803;SDS011;4438;50.890;4.726;2022-07-29T11:51:10;3.10;;;2.90;;
8803;SDS011;4438;50.890;4.726;2022-07-29T11:53:39;3.07;;;2.50;;
8803;SDS011;4438;50.890;4.726;2022-07-29T11:56:08;2.40;;;2.20;;
8803;SDS011;4438;50.890;4.726;2022-07-29T11:58:34;3.40;;;2.30;;
8803;SDS011;4438;50.890;4.726;2022-07-29T12:01:02;4.20;;;2.83;;
8803;SDS011;4438;50.890;4.726;2022-07-29T12:03:28;2.90;;;2.60;;
8803;SDS011;4438;50.890;4.726;2022-07-29T12:05:54;2.88;;;2.67;;
8803;SDS011;4438;50.890;4.726;2022-07-29T12:08:21;3.33;;;2.60;;
8803;SDS011;4438;50.890;4.726;2022-07-29T12:10:51;3.08;;;2.70;;
8803;SDS011;4438;50.890;4.726;2022-07-29T12:13:19;3.05;;;2.35;;
8803;SDS011;4438;50.890;4.726;2022-07-29T12:15:52;2.97;;;2.40;;
8803;SDS011;4438;50.890;4.726;2022-07-29T12:18:18;3.35;;;2.55;;
8803;SDS011;4438;50.890;4.726;2022-07-29T12:20:46;3.53;;;2.40;;
8803;SDS011;4438;50.890;4.726;2022-07-29T12:23:13;4.05;;;2.70;;
8803;SDS011;4438;50.890;4.726;2022-07-29T12:25:40;3.72;;;2.60;;
8803;SDS011;4438;50.890;4.726;2022-07-29T12:28:11;3.42;;;2.55;;
8803;SDS011;4438;50.890;4.726;2022-07-29T12:30:47;2.80;;;2.50;;
8803;SDS011;4438;50.890;4.726;2022-07-29T12:35:44;4.68;;;2.58;;
8803;SDS011;4438;50.890;4.726;2022-07-29T12:38:11;2.78;;;2.50;;
8803;SDS011;4438;50.890;4.726;2022-07-29T12:40:37;5.38;;;2.70;;
8803;SDS011;4438;50.890;4.726;2022-07-29T12:45:32;2.60;;;2.40;;
8803;SDS011;4438;50.890;4.726;2022-07-29T12:47:58;3.10;;;2.78;;
8803;SDS011;4438;50.890;4.726;2022-07-29T12:50:24;4.55;;;2.60;;
8803;SDS011;4438;50.890;4.726;2022-07-29T12:52:51;2.72;;;2.50;;
8803;SDS011;4438;50.890;4.726;2022-07-29T12:55:37;3.00;;;2.17;;
8803;SDS011;4438;50.890;4.726;2022-07-29T12:58:03;3.25;;;2.60;;
8803;SDS011;4438;50.890;4.726;2022-07-29T13:00:29;3.72;;;2.40;;
8803;SDS011;4438;50.890;4.726;2022-07-29T13:02:56;3.67;;;2.30;;
8803;SDS011;4438;50.890;4.726;2022-07-29T13:05:22;2.65;;;2.20;;
8803;SDS011;4438;50.890;4.726;2022-07-29T13:07:49;2.53;;;2.33;;
8803;SDS011;4438;50.890;4.726;2022-07-29T13:10:17;2.95;;;2.67;;
8803;SDS011;4438;50.890;4.726;2022-07-29T13:15:28;3.78;;;2.50;;
8803;SDS011;4438;50.890;4.726;2022-07-29T13:17:54;2.97;;;2.65;;
8803;SDS011;4438;50.890;4.726;2022-07-29T13:20:23;3.22;;;2.40;;
8803;SDS011;4438;50.890;4.726;2022-07-29T13:22:50;4.07;;;2.42;;
8803;SDS011;4438;50.890;4.726;2022-07-29T13:25:23;4.03;;;2.95;;
8803;SDS011;4438;50.890;4.726;2022-07-29T13:27:49;3.28;;;2.80;;
8803;SDS011;4438;50.890;4.726;2022-07-29T13:30:16;3.53;;;2.40;;
8803;SDS011;4438;50.890;4.726;2022-07-29T13:32:42;4.18;;;2.50;;
8803;SDS011;4438;50.890;4.726;2022-07-29T13:35:08;3.83;;;2.38;;
8803;SDS011;4438;50.890;4.726;2022-07-29T13:37:35;3.08;;;2.40;;
8803;SDS011;4438;50.890;4.726;2022-07-29T13:40:04;3.22;;;2.28;;
8803;SDS011;4438;50.890;4.726;2022-07-29T13:42:31;3.83;;;2.90;;
8803;SDS011;4438;50.890;4.726;2022-07-29T13:44:57;4.15;;;2.63;;
8803;SDS011;4438;50.890;4.726;2022-07-29T13:47:24;2.47;;;2.28;;
8803;SDS011;4438;50.890;4.726;2022-07-29T13:49:50;2.35;;;2.08;;
8803;SDS011;4438;50.890;4.726;2022-07-29T13:52:16;3.55;;;2.83;;
8803;SDS011;4438;50.890;4.726;2022-07-29T13:54:43;7.03;;;2.60;;
8803;SDS011;4438;50.890;4.726;2022-07-29T13:57:09;3.15;;;2.63;;
8803;SDS011;4438;50.890;4.726;2022-07-29T13:59:36;3.25;;;2.17;;
8803;SDS011;4438;50.890;4.726;2022-07-29T14:02:02;2.83;;;2.50;;
8803;SDS011;4438;50.890;4.726;2022-07-29T14:04:28;2.72;;;2.50;;
8803;SDS011;4438;50.890;4.726;2022-07-29T14:06:54;2.90;;;2.58;;
8803;SDS011;4438;50.890;4.726;2022-07-29T14:09:20;5.05;;;2.60;;
8803;SDS011;4438;50.890;4.726;2022-07-29T14:11:46;4.65;;;2.58;;
8803;SDS011;4438;50.890;4.726;2022-07-29T14:14:14;4.28;;;2.80;;
8803;SDS011;4438;50.890;4.726;2022-07-29T14:16:40;3.58;;;2.92;;
8803;SDS011;4438;50.890;4.726;2022-07-29T14:19:06;4.13;;;2.45;;
8803;SDS011;4438;50.890;4.726;2022-07-29T14:21:32;3.85;;;2.50;;
8803;SDS011;4438;50.890;4.726;2022-07-29T14:23:59;3.30;;;3.00;;
8803;SDS011;4438;50.890;4.726;2022-07-29T14:26:25;3.30;;;3.00;;
8803;SDS011;4438;50.890;4.726;2022-07-29T14:28:51;3.60;;;2.90;;
8803;SDS011;4438;50.890;4.726;2022-07-29T14:31:18;3.75;;;3.05;;
8803;SDS011;4438;50.890;4.726;2022-07-29T14:33:44;2.83;;;2.63;;
8803;SDS011;4438;50.890;4.726;2022-07-29T14:36:10;3.40;;;3.00;;
8803;SDS011;4438;50.890;4.726;2022-07-29T14:38:36;5.15;;;3.38;;
8803;SDS011;4438;50.890;4.726;2022-07-29T14:41:03;3.92;;;3.47;;
8803;SDS011;4438;50.890;4.726;2022-07-29T14:43:30;4.00;;;3.40;;
8803;SDS011;4438;50.890;4.726;2022-07-29T14:45:56;4.13;;;3.60;;
8803;SDS011;4438;50.890;4.726;2022-07-29T14:48:22;5.27;;;4.30;;
8803;SDS011;4438;50.890;4.726;2022-07-29T14:50:48;4.67;;;3.50;;
8803;SDS011;4438;50.890;4.726;2022-07-29T14:53:14;4.43;;;3.70;;
8803;SDS011;4438;50.890;4.726;2022-07-29T14:55:40;5.53;;;3.83;;
8803;SDS011;4438;50.890;4.726;2022-07-29T14:58:07;5.13;;;4.13;;
8803;SDS011;4438;50.890;4.726;2022-07-29T15:00:33;4.83;;;3.83;;
8803;SDS011;4438;50.890;4.726;2022-07-29T15:03:00;5.43;;;3.90;;
8803;SDS011;4438;50.890;4.726;2022-07-29T15:05:27;4.63;;;4.00;;
8803;SDS011;4438;50.890;4.726;2022-07-29T15:07:53;6.03;;;3.40;;
8803;SDS011;4438;50.890;4.726;2022-07-29T15:10:19;3.63;;;3.17;;
8803;SDS011;4438;50.890;4.726;2022-07-29T15:12:45;3.83;;;3.30;;
8803;SDS011;4438;50.890;4.726;2022-07-29T15:15:11;3.57;;;3.07;;
8803;SDS011;4438;50.890;4.726;2022-07-29T15:17:37;5.68;;;3.30;;
8803;SDS011;4438;50.890;4.726;2022-07-29T15:20:04;5.85;;;3.90;;
8803;SDS011;4438;50.890;4.726;2022-07-29T15:22:30;3.67;;;3.38;;
8803;SDS011;4438;50.890;4.726;2022-07-29T15:24:56;4.50;;;3.33;;
8803;SDS011;4438;50.890;4.726;2022-07-29T15:27:22;4.20;;;3.80;;
8803;SDS011;4438;50.890;4.726;2022-07-29T15:29:48;4.47;;;3.40;;
8803;SDS011;4438;50.890;4.726;2022-07-29T15:32:14;3.08;;;2.80;;
8803;SDS011;4438;50.890;4.726;2022-07-29T15:34:41;4.85;;;3.20;;
8803;SDS011;4438;50.890;4.726;2022-07-29T15:37:07;3.20;;;2.90;;
8803;SDS011;4438;50.890;4.726;2022-07-29T15:39:34;4.32;;;3.10;;
8803;SDS011;4438;50.890;4.726;2022-07-29T15:42:00;4.30;;;3.00;;
8803;SDS011;4438;50.890;4.726;2022-07-29T15:44:28;4.47;;;3.00;;
8803;SDS011;4438;50.890;4.726;2022-07-29T15:46:54;3.25;;;2.95;;
8803;SDS011;4438;50.890;4.726;2022-07-29T15:49:31;3.22;;;2.92;;
8803;SDS011;4438;50.890;4.726;2022-07-29T15:52:04;4.55;;;3.55;;
8803;SDS011;4438;50.890;4.726;2022-07-29T15:54:31;4.45;;;2.92;;
8803;SDS011;4438;50.890;4.726;2022-07-29T15:56:57;3.50;;;3.20;;
8803;SDS011;4438;50.890;4.726;2022-07-29T15:59:25;3.55;;;3.20;;
8803;SDS011;4438;50.890;4.726;2022-07-29T16:01:51;3.33;;;2.70;;
8803;SDS011;4438;50.890;4.726;2022-07-29T16:04:17;3.13;;;2.90;;